PILOTS ONLINE: 368    ATC ONLINE: 77

KMEV

Minden Tahoe Airport

Location

City Minden
Country  United States
Latitude 39° 0' 1" N
Longitude 119° 45' 3" W
Elevation 4722 ft
Type Small Airport

Map

Weather

METAR
2014/08/22 23:10
KMEV 222310Z AUTO 26021G32KT 10SM CLR 27/00 A2997 RMK AO2
TAF
No TAF available

Runways

12/30 5300 ft / 75 ft
12G/30G 2200 ft / 60 ft
16/34 7400 ft / 100 ft

Outbound flights

Callsign Flying to Pilot ATD/STD ETA Aircraft

Inbound flights

Callsign Flying from Pilot ATD ETA Aircraft